sensor_id;sensor_type;location;lat;lon;timestamp;P1;durP1;ratioP1;P2;durP2;ratioP2
26484;SDS011;18083;50.560;7.262;2023-11-21T01:26:58;24.13;;;13.80;;
26484;SDS011;18083;50.560;7.262;2023-11-21T05:38:52;44.67;;;27.03;;
26484;SDS011;18083;50.560;7.262;2023-11-21T05:41:28;52.57;;;29.30;;
26484;SDS011;18083;50.560;7.262;2023-11-21T05:43:55;51.50;;;29.17;;
26484;SDS011;18083;50.560;7.262;2023-11-21T05:46:39;47.93;;;27.83;;
26484;SDS011;18083;50.560;7.262;2023-11-21T05:49:21;44.17;;;27.20;;
26484;SDS011;18083;50.560;7.262;2023-11-21T05:57:27;46.93;;;26.90;;
26484;SDS011;18083;50.560;7.262;2023-11-21T06:19:57;55.13;;;29.27;;
26484;SDS011;18083;50.560;7.262;2023-11-21T06:31:39;53.13;;;30.50;;
26484;SDS011;18083;50.560;7.262;2023-11-21T06:34:12;62.80;;;32.03;;
26484;SDS011;18083;50.560;7.262;2023-11-21T06:39:31;57.13;;;28.87;;
26484;SDS011;18083;50.560;7.262;2023-11-21T06:42:02;57.53;;;30.40;;
26484;SDS011;18083;50.560;7.262;2023-11-21T06:44:31;44.43;;;27.50;;
26484;SDS011;18083;50.560;7.262;2023-11-21T06:46:59;51.97;;;28.90;;
26484;SDS011;18083;50.560;7.262;2023-11-21T06:52:17;58.30;;;30.07;;
26484;SDS011;18083;50.560;7.262;2023-11-21T06:54:51;55.83;;;28.83;;
26484;SDS011;18083;50.560;7.262;2023-11-21T06:57:19;48.80;;;29.00;;
26484;SDS011;18083;50.560;7.262;2023-11-21T06:59:47;46.10;;;26.17;;
26484;SDS011;18083;50.560;7.262;2023-11-21T07:02:16;45.70;;;27.37;;
26484;SDS011;18083;50.560;7.262;2023-11-21T07:04:45;48.37;;;28.17;;
26484;SDS011;18083;50.560;7.262;2023-11-21T07:07:32;49.90;;;29.03;;
26484;SDS011;18083;50.560;7.262;2023-11-21T07:10:02;47.63;;;28.13;;
26484;SDS011;18083;50.560;7.262;2023-11-21T07:12:30;49.30;;;27.70;;
26484;SDS011;18083;50.560;7.262;2023-11-21T07:14:58;51.40;;;27.93;;
26484;SDS011;18083;50.560;7.262;2023-11-21T07:17:25;47.33;;;28.80;;
26484;SDS011;18083;50.560;7.262;2023-11-21T07:19:52;45.93;;;26.73;;
26484;SDS011;18083;50.560;7.262;2023-11-21T07:22:21;52.77;;;28.23;;
26484;SDS011;18083;50.560;7.262;2023-11-21T07:24:49;52.63;;;28.60;;
26484;SDS011;18083;50.560;7.262;2023-11-21T07:27:17;51.70;;;27.90;;
26484;SDS011;18083;50.560;7.262;2023-11-21T07:29:45;54.70;;;25.90;;
26484;SDS011;18083;50.560;7.262;2023-11-21T07:32:12;49.17;;;27.70;;
26484;SDS011;18083;50.560;7.262;2023-11-21T07:34:41;42.10;;;25.53;;
26484;SDS011;18083;50.560;7.262;2023-11-21T07:37:08;44.37;;;24.50;;
26484;SDS011;18083;50.560;7.262;2023-11-21T07:42:39;43.83;;;23.40;;
26484;SDS011;18083;50.560;7.262;2023-11-21T07:45:08;42.30;;;19.77;;
26484;SDS011;18083;50.560;7.262;2023-11-21T07:47:36;38.33;;;22.00;;
26484;SDS011;18083;50.560;7.262;2023-11-21T07:50:10;46.47;;;22.73;;
26484;SDS011;18083;50.560;7.262;2023-11-21T07:52:34;43.20;;;21.17;;
26484;SDS011;18083;50.560;7.262;2023-11-21T07:55:02;42.03;;;20.70;;
26484;SDS011;18083;50.560;7.262;2023-11-21T07:57:34;46.27;;;22.47;;
26484;SDS011;18083;50.560;7.262;2023-11-21T08:00:05;45.77;;;23.27;;
26484;SDS011;18083;50.560;7.262;2023-11-21T08:05:23;41.50;;;20.73;;
26484;SDS011;18083;50.560;7.262;2023-11-21T08:07:51;47.40;;;20.33;;
26484;SDS011;18083;50.560;7.262;2023-11-21T08:10:18;36.77;;;19.33;;
26484;SDS011;18083;50.560;7.262;2023-11-21T08:12:47;43.67;;;19.30;;
26484;SDS011;18083;50.560;7.262;2023-11-21T08:15:23;32.20;;;18.20;;
26484;SDS011;18083;50.560;7.262;2023-11-21T08:17:50;41.70;;;20.93;;
26484;SDS011;18083;50.560;7.262;2023-11-21T08:20:27;37.63;;;19.70;;
26484;SDS011;18083;50.560;7.262;2023-11-21T08:25:59;40.43;;;19.50;;
26484;SDS011;18083;50.560;7.262;2023-11-21T08:28:26;41.27;;;20.60;;
26484;SDS011;18083;50.560;7.262;2023-11-21T08:30:53;36.97;;;18.90;;
26484;SDS011;18083;50.560;7.262;2023-11-21T08:33:21;38.83;;;20.17;;
26484;SDS011;18083;50.560;7.262;2023-11-21T08:35:48;35.90;;;18.93;;
26484;SDS011;18083;50.560;7.262;2023-11-21T08:38:16;39.13;;;19.43;;
26484;SDS011;18083;50.560;7.262;2023-11-21T08:40:44;39.77;;;18.20;;
26484;SDS011;18083;50.560;7.262;2023-11-21T08:43:13;39.87;;;18.47;;
26484;SDS011;18083;50.560;7.262;2023-11-21T08:45:42;42.40;;;20.43;;
26484;SDS011;18083;50.560;7.262;2023-11-21T08:48:09;39.93;;;19.90;;
26484;SDS011;18083;50.560;7.262;2023-11-21T08:50:38;34.10;;;16.30;;
26484;SDS011;18083;50.560;7.262;2023-11-21T08:53:05;42.63;;;19.20;;
26484;SDS011;18083;50.560;7.262;2023-11-21T08:55:32;32.87;;;15.73;;
26484;SDS011;18083;50.560;7.262;2023-11-21T08:58:01;31.43;;;16.07;;
26484;SDS011;18083;50.560;7.262;2023-11-21T09:00:31;25.77;;;14.37;;
26484;SDS011;18083;50.560;7.262;2023-11-21T09:03:01;33.70;;;16.17;;
26484;SDS011;18083;50.560;7.262;2023-11-21T09:05:29;28.80;;;14.67;;
26484;SDS011;18083;50.560;7.262;2023-11-21T09:07:57;27.60;;;14.17;;
26484;SDS011;18083;50.560;7.262;2023-11-21T09:10:24;26.40;;;14.10;;
26484;SDS011;18083;50.560;7.262;2023-11-21T09:12:52;32.60;;;13.60;;
26484;SDS011;18083;50.560;7.262;2023-11-21T09:15:19;31.53;;;14.67;;
26484;SDS011;18083;50.560;7.262;2023-11-21T09:17:47;39.30;;;18.47;;
26484;SDS011;18083;50.560;7.262;2023-11-21T09:20:14;34.80;;;17.17;;
26484;SDS011;18083;50.560;7.262;2023-11-21T09:22:42;37.33;;;19.10;;
26484;SDS011;18083;50.560;7.262;2023-11-21T09:25:11;32.13;;;18.20;;
26484;SDS011;18083;50.560;7.262;2023-11-21T09:27:39;38.43;;;19.07;;
26484;SDS011;18083;50.560;7.262;2023-11-21T09:30:06;33.77;;;16.50;;
26484;SDS011;18083;50.560;7.262;2023-11-21T09:32:40;32.07;;;17.60;;
26484;SDS011;18083;50.560;7.262;2023-11-21T09:35:07;35.97;;;17.13;;
26484;SDS011;18083;50.560;7.262;2023-11-21T09:37:34;35.27;;;17.27;;
26484;SDS011;18083;50.560;7.262;2023-11-21T09:40:02;40.17;;;17.77;;
26484;SDS011;18083;50.560;7.262;2023-11-21T09:42:36;34.13;;;19.37;;
26484;SDS011;18083;50.560;7.262;2023-11-21T09:45:18;45.47;;;20.27;;
26484;SDS011;18083;50.560;7.262;2023-11-21T09:47:46;40.97;;;19.77;;
26484;SDS011;18083;50.560;7.262;2023-11-21T09:50:15;39.23;;;20.13;;
26484;SDS011;18083;50.560;7.262;2023-11-21T09:55:24;37.73;;;19.80;;
26484;SDS011;18083;50.560;7.262;2023-11-21T09:57:52;32.00;;;16.83;;
26484;SDS011;18083;50.560;7.262;2023-11-21T10:00:20;35.07;;;18.23;;
26484;SDS011;18083;50.560;7.262;2023-11-21T10:02:49;34.20;;;17.53;;
26484;SDS011;18083;50.560;7.262;2023-11-21T10:05:19;32.60;;;17.10;;
26484;SDS011;18083;50.560;7.262;2023-11-21T10:07:49;33.10;;;17.43;;
26484;SDS011;18083;50.560;7.262;2023-11-21T10:10:21;33.93;;;15.93;;
26484;SDS011;18083;50.560;7.262;2023-11-21T10:13:05;46.63;;;18.97;;
26484;SDS011;18083;50.560;7.262;2023-11-21T10:15:52;31.70;;;15.83;;
26484;SDS011;18083;50.560;7.262;2023-11-21T10:29:25;38.80;;;16.07;;
26484;SDS011;18083;50.560;7.262;2023-11-21T10:31:58;33.30;;;15.93;;
26484;SDS011;18083;50.560;7.262;2023-11-21T10:34:26;35.13;;;17.33;;
26484;SDS011;18083;50.560;7.262;2023-11-21T10:36:54;40.27;;;17.10;;
26484;SDS011;18083;50.560;7.262;2023-11-21T10:39:23;35.67;;;17.33;;
26484;SDS011;18083;50.560;7.262;2023-11-21T10:41:54;30.53;;;16.60;;
26484;SDS011;18083;50.560;7.262;2023-11-21T10:44:25;34.83;;;18.27;;
26484;SDS011;18083;50.560;7.262;2023-11-21T10:46:53;31.87;;;17.77;;
26484;SDS011;18083;50.560;7.262;2023-11-21T10:52:13;40.30;;;16.83;;
26484;SDS011;18083;50.560;7.262;2023-11-21T10:54:43;32.13;;;17.77;;
26484;SDS011;18083;50.560;7.262;2023-11-21T10:57:10;35.70;;;18.57;;
26484;SDS011;18083;50.560;7.262;2023-11-21T10:59:40;37.13;;;18.83;;
26484;SDS011;18083;50.560;7.262;2023-11-21T11:02:30;37.37;;;18.90;;
26484;SDS011;18083;50.560;7.262;2023-11-21T11:04:37;35.07;;;19.40;;
26484;SDS011;18083;50.560;7.262;2023-11-21T11:07:05;30.63;;;16.57;;
26484;SDS011;18083;50.560;7.262;2023-11-21T11:09:35;36.50;;;17.50;;
26484;SDS011;18083;50.560;7.262;2023-11-21T11:12:03;37.37;;;16.70;;
26484;SDS011;18083;50.560;7.262;2023-11-21T11:14:33;36.63;;;18.45;;
26484;SDS011;18083;50.560;7.262;2023-11-21T11:17:00;42.57;;;19.77;;
26484;SDS011;18083;50.560;7.262;2023-11-21T11:19:28;42.40;;;19.63;;
26484;SDS011;18083;50.560;7.262;2023-11-21T11:22:16;31.15;;;17.85;;
26484;SDS011;18083;50.560;7.262;2023-11-21T11:30:07;37.90;;;19.97;;
26484;SDS011;18083;50.560;7.262;2023-11-21T11:32:57;37.47;;;20.37;;
26484;SDS011;18083;50.560;7.262;2023-11-21T11:43:25;37.20;;;18.03;;
26484;SDS011;18083;50.560;7.262;2023-11-21T11:46:14;39.42;;;18.20;;
26484;SDS011;18083;50.560;7.262;2023-11-21T11:51:51;49.80;;;21.60;;
26484;SDS011;18083;50.560;7.262;2023-11-21T11:54:16;32.37;;;17.97;;
26484;SDS011;18083;50.560;7.262;2023-11-21T12:04:55;32.87;;;18.43;;
26484;SDS011;18083;50.560;7.262;2023-11-21T12:10:37;39.43;;;19.70;;
26484;SDS011;18083;50.560;7.262;2023-11-21T12:15:53;37.90;;;17.83;;
26484;SDS011;18083;50.560;7.262;2023-11-21T12:18:33;32.30;;;18.80;;
26484;SDS011;18083;50.560;7.262;2023-11-21T12:21:00;38.63;;;18.43;;
26484;SDS011;18083;50.560;7.262;2023-11-21T12:26:03;34.38;;;17.75;;
26484;SDS011;18083;50.560;7.262;2023-11-21T12:28:30;33.27;;;19.03;;
26484;SDS011;18083;50.560;7.262;2023-11-21T12:30:59;42.60;;;19.95;;
26484;SDS011;18083;50.560;7.262;2023-11-21T12:33:26;30.50;;;20.67;;
26484;SDS011;18083;50.560;7.262;2023-11-21T12:35:55;38.07;;;18.57;;
26484;SDS011;18083;50.560;7.262;2023-11-21T12:38:24;41.58;;;20.05;;
26484;SDS011;18083;50.560;7.262;2023-11-21T12:40:51;33.53;;;16.83;;
26484;SDS011;18083;50.560;7.262;2023-11-21T12:43:20;35.92;;;18.23;;
26484;SDS011;18083;50.560;7.262;2023-11-21T12:45:48;30.30;;;17.60;;
26484;SDS011;18083;50.560;7.262;2023-11-21T12:48:15;38.20;;;18.23;;
26484;SDS011;18083;50.560;7.262;2023-11-21T12:50:44;31.97;;;19.63;;
26484;SDS011;18083;50.560;7.262;2023-11-21T12:53:13;33.30;;;18.00;;
26484;SDS011;18083;50.560;7.262;2023-11-21T12:55:43;33.60;;;18.50;;
26484;SDS011;18083;50.560;7.262;2023-11-21T12:58:12;31.43;;;17.97;;
26484;SDS011;18083;50.560;7.262;2023-11-21T13:00:40;32.23;;;18.60;;
26484;SDS011;18083;50.560;7.262;2023-11-21T13:03:09;38.53;;;17.83;;
26484;SDS011;18083;50.560;7.262;2023-11-21T13:05:40;45.78;;;23.42;;
26484;SDS011;18083;50.560;7.262;2023-11-21T13:08:12;41.10;;;21.17;;
26484;SDS011;18083;50.560;7.262;2023-11-21T13:10:40;28.73;;;16.33;;
26484;SDS011;18083;50.560;7.262;2023-11-21T13:13:10;37.73;;;18.43;;
26484;SDS011;18083;50.560;7.262;2023-11-21T13:15:52;30.80;;;17.00;;
26484;SDS011;18083;50.560;7.262;2023-11-21T13:18:16;34.47;;;19.43;;
26484;SDS011;18083;50.560;7.262;2023-11-21T13:20:44;30.30;;;17.17;;
26484;SDS011;18083;50.560;7.262;2023-11-21T13:23:12;35.03;;;19.47;;
26484;SDS011;18083;50.560;7.262;2023-11-21T13:25:42;39.30;;;19.67;;
26484;SDS011;18083;50.560;7.262;2023-11-21T13:28:11;32.33;;;19.10;;
26484;SDS011;18083;50.560;7.262;2023-11-21T13:30:40;35.75;;;21.55;;
26484;SDS011;18083;50.560;7.262;2023-11-21T13:33:09;36.90;;;20.83;;
26484;SDS011;18083;50.560;7.262;2023-11-21T13:35:38;38.27;;;20.30;;
26484;SDS011;18083;50.560;7.262;2023-11-21T13:38:10;42.60;;;21.40;;
26484;SDS011;18083;50.560;7.262;2023-11-21T13:40:38;32.70;;;19.90;;
26484;SDS011;18083;50.560;7.262;2023-11-21T13:43:08;50.90;;;26.80;;
26484;SDS011;18083;50.560;7.262;2023-11-21T13:45:37;42.47;;;21.20;;
26484;SDS011;18083;50.560;7.262;2023-11-21T13:48:06;36.60;;;19.32;;
26484;SDS011;18083;50.560;7.262;2023-11-21T13:50:37;34.43;;;19.25;;
26484;SDS011;18083;50.560;7.262;2023-11-21T13:53:05;31.60;;;16.57;;
26484;SDS011;18083;50.560;7.262;2023-11-21T13:55:37;31.02;;;16.77;;
26484;SDS011;18083;50.560;7.262;2023-11-21T13:58:06;29.67;;;16.70;;
26484;SDS011;18083;50.560;7.262;2023-11-21T14:00:35;29.27;;;17.23;;
26484;SDS011;18083;50.560;7.262;2023-11-21T14:03:10;30.87;;;16.03;;
26484;SDS011;18083;50.560;7.262;2023-11-21T14:05:39;29.33;;;16.13;;
26484;SDS011;18083;50.560;7.262;2023-11-21T14:08:07;34.90;;;16.77;;
26484;SDS011;18083;50.560;7.262;2023-11-21T14:10:36;36.90;;;16.27;;
26484;SDS011;18083;50.560;7.262;2023-11-21T14:15:43;35.27;;;18.03;;
26484;SDS011;18083;50.560;7.262;2023-11-21T14:21:04;33.23;;;19.17;;
26484;SDS011;18083;50.560;7.262;2023-11-21T14:23:36;35.73;;;17.80;;
26484;SDS011;18083;50.560;7.262;2023-11-21T14:26:04;35.97;;;17.23;;
26484;SDS011;18083;50.560;7.262;2023-11-21T14:28:33;30.00;;;17.30;;
26484;SDS011;18083;50.560;7.262;2023-11-21T14:31:02;32.27;;;16.77;;
26484;SDS011;18083;50.560;7.262;2023-11-21T14:33:30;33.95;;;17.35;;
26484;SDS011;18083;50.560;7.262;2023-11-21T14:38:54;29.93;;;15.90;;
26484;SDS011;18083;50.560;7.262;2023-11-21T14:44:01;36.40;;;18.17;;
26484;SDS011;18083;50.560;7.262;2023-11-21T14:52:00;41.47;;;20.30;;
26484;SDS011;18083;50.560;7.262;2023-11-21T14:54:43;38.33;;;18.47;;
26484;SDS011;18083;50.560;7.262;2023-11-21T15:06:06;36.00;;;19.03;;
26484;SDS011;18083;50.560;7.262;2023-11-21T15:08:56;34.17;;;17.43;;
26484;SDS011;18083;50.560;7.262;2023-11-21T15:14:11;32.10;;;16.77;;
26484;SDS011;18083;50.560;7.262;2023-11-21T15:24:56;34.93;;;17.90;;
26484;SDS011;18083;50.560;7.262;2023-11-21T15:35:18;34.33;;;15.63;;
26484;SDS011;18083;50.560;7.262;2023-11-21T15:40:44;29.13;;;16.23;;
26484;SDS011;18083;50.560;7.262;2023-11-21T15:43:29;29.30;;;15.80;;
26484;SDS011;18083;50.560;7.262;2023-11-21T15:48:47;28.27;;;14.27;;
26484;SDS011;18083;50.560;7.262;2023-11-21T15:54:24;33.60;;;17.83;;
26484;SDS011;18083;50.560;7.262;2023-11-21T16:15:21;41.90;;;20.07;;
26484;SDS011;18083;50.560;7.262;2023-11-21T16:17:53;37.37;;;19.03;;
26484;SDS011;18083;50.560;7.262;2023-11-21T16:20:22;39.90;;;19.73;;
26484;SDS011;18083;50.560;7.262;2023-11-21T16:22:49;41.30;;;19.63;;
26484;SDS011;18083;50.560;7.262;2023-11-21T16:25:16;37.53;;;19.60;;
26484;SDS011;18083;50.560;7.262;2023-11-21T16:27:44;33.33;;;19.03;;
26484;SDS011;18083;50.560;7.262;2023-11-21T16:30:11;42.77;;;19.73;;
26484;SDS011;18083;50.560;7.262;2023-11-21T16:32:39;41.20;;;20.23;;
26484;SDS011;18083;50.560;7.262;2023-11-21T16:35:06;38.43;;;17.87;;
26484;SDS011;18083;50.560;7.262;2023-11-21T16:37:35;41.63;;;18.47;;
26484;SDS011;18083;50.560;7.262;2023-11-21T16:40:03;46.13;;;20.00;;
26484;SDS011;18083;50.560;7.262;2023-11-21T16:42:32;41.23;;;18.87;;
26484;SDS011;18083;50.560;7.262;2023-11-21T16:45:00;43.10;;;19.10;;
26484;SDS011;18083;50.560;7.262;2023-11-21T16:47:29;39.10;;;21.93;;
26484;SDS011;18083;50.560;7.262;2023-11-21T16:49:56;43.33;;;20.73;;
26484;SDS011;18083;50.560;7.262;2023-11-21T16:52:24;46.07;;;19.47;;
26484;SDS011;18083;50.560;7.262;2023-11-21T16:54:52;41.00;;;20.03;;
26484;SDS011;18083;50.560;7.262;2023-11-21T16:57:20;41.37;;;18.87;;
26484;SDS011;18083;50.560;7.262;2023-11-21T16:59:48;39.57;;;20.50;;
26484;SDS011;18083;50.560;7.262;2023-11-21T17:02:18;38.20;;;20.50;;
26484;SDS011;18083;50.560;7.262;2023-11-21T17:04:45;47.27;;;24.37;;
26484;SDS011;18083;50.560;7.262;2023-11-21T17:07:15;43.03;;;20.13;;
26484;SDS011;18083;50.560;7.262;2023-11-21T17:09:43;54.73;;;22.33;;
26484;SDS011;18083;50.560;7.262;2023-11-21T17:12:11;49.43;;;21.40;;
26484;SDS011;18083;50.560;7.262;2023-11-21T17:14:39;53.93;;;26.03;;
26484;SDS011;18083;50.560;7.262;2023-11-21T17:17:08;53.10;;;25.20;;
26484;SDS011;18083;50.560;7.262;2023-11-21T17:19:36;41.57;;;23.53;;
26484;SDS011;18083;50.560;7.262;2023-11-21T17:22:04;47.00;;;23.03;;
26484;SDS011;18083;50.560;7.262;2023-11-21T17:24:32;53.20;;;22.80;;
26484;SDS011;18083;50.560;7.262;2023-11-21T17:27:01;63.80;;;23.73;;
26484;SDS011;18083;50.560;7.262;2023-11-21T17:29:28;56.33;;;24.47;;
26484;SDS011;18083;50.560;7.262;2023-11-21T17:31:56;45.60;;;25.07;;
26484;SDS011;18083;50.560;7.262;2023-11-21T17:34:23;49.83;;;23.17;;
26484;SDS011;18083;50.560;7.262;2023-11-21T17:36:50;46.80;;;22.90;;
26484;SDS011;18083;50.560;7.262;2023-11-21T17:39:18;47.17;;;22.77;;
26484;SDS011;18083;50.560;7.262;2023-11-21T17:41:45;48.33;;;26.07;;
26484;SDS011;18083;50.560;7.262;2023-11-21T17:44:13;44.57;;;21.67;;
26484;SDS011;18083;50.560;7.262;2023-11-21T17:46:40;62.63;;;24.80;;
26484;SDS011;18083;50.560;7.262;2023-11-21T17:49:07;52.53;;;26.43;;
26484;SDS011;18083;50.560;7.262;2023-11-21T17:51:38;65.20;;;26.90;;
26484;SDS011;18083;50.560;7.262;2023-11-21T17:54:05;55.87;;;26.63;;
26484;SDS011;18083;50.560;7.262;2023-11-21T17:56:34;76.27;;;35.37;;
26484;SDS011;18083;50.560;7.262;2023-11-21T17:59:02;67.30;;;31.97;;
26484;SDS011;18083;50.560;7.262;2023-11-21T18:01:40;50.17;;;24.17;;
26484;SDS011;18083;50.560;7.262;2023-11-21T18:04:01;54.23;;;24.47;;
26484;SDS011;18083;50.560;7.262;2023-11-21T18:06:28;41.70;;;22.23;;
26484;SDS011;18083;50.560;7.262;2023-11-21T18:08:56;52.23;;;23.30;;
26484;SDS011;18083;50.560;7.262;2023-11-21T18:11:24;42.97;;;22.13;;
26484;SDS011;18083;50.560;7.262;2023-11-21T18:13:52;56.53;;;22.37;;
26484;SDS011;18083;50.560;7.262;2023-11-21T18:16:19;35.63;;;19.50;;
26484;SDS011;18083;50.560;7.262;2023-11-21T18:18:47;40.23;;;19.23;;
26484;SDS011;18083;50.560;7.262;2023-11-21T18:21:16;40.03;;;19.90;;
26484;SDS011;18083;50.560;7.262;2023-11-21T18:23:43;42.77;;;19.30;;
26484;SDS011;18083;50.560;7.262;2023-11-21T18:26:15;40.13;;;17.23;;
26484;SDS011;18083;50.560;7.262;2023-11-21T18:28:40;34.53;;;17.03;;
26484;SDS011;18083;50.560;7.262;2023-11-21T18:31:07;31.23;;;15.57;;
26484;SDS011;18083;50.560;7.262;2023-11-21T18:33:35;28.77;;;14.20;;
26484;SDS011;18083;50.560;7.262;2023-11-21T18:36:02;22.50;;;13.10;;
26484;SDS011;18083;50.560;7.262;2023-11-21T18:38:31;17.47;;;10.53;;
26484;SDS011;18083;50.560;7.262;2023-11-21T18:40:58;16.53;;;9.90;;
26484;SDS011;18083;50.560;7.262;2023-11-21T18:43:26;18.90;;;9.43;;
26484;SDS011;18083;50.560;7.262;2023-11-21T18:45:53;19.93;;;8.93;;
26484;SDS011;18083;50.560;7.262;2023-11-21T18:48:21;21.23;;;11.40;;
26484;SDS011;18083;50.560;7.262;2023-11-21T18:50:48;15.50;;;9.13;;
26484;SDS011;18083;50.560;7.262;2023-11-21T18:53:17;15.80;;;9.00;;
26484;SDS011;18083;50.560;7.262;2023-11-21T18:55:44;14.87;;;6.90;;
26484;SDS011;18083;50.560;7.262;2023-11-21T18:58:12;13.47;;;8.13;;
26484;SDS011;18083;50.560;7.262;2023-11-21T19:00:39;13.63;;;8.73;;
26484;SDS011;18083;50.560;7.262;2023-11-21T19:03:07;13.10;;;8.63;;
26484;SDS011;18083;50.560;7.262;2023-11-21T19:05:35;19.20;;;9.20;;
26484;SDS011;18083;50.560;7.262;2023-11-21T19:08:03;18.27;;;10.10;;
26484;SDS011;18083;50.560;7.262;2023-11-21T19:10:30;13.73;;;8.27;;
26484;SDS011;18083;50.560;7.262;2023-11-21T19:12:58;14.40;;;7.20;;
26484;SDS011;18083;50.560;7.262;2023-11-21T19:15:27;14.93;;;8.23;;
26484;SDS011;18083;50.560;7.262;2023-11-21T19:17:56;14.80;;;7.10;;
26484;SDS011;18083;50.560;7.262;2023-11-21T19:20:25;19.47;;;8.83;;
26484;SDS011;18083;50.560;7.262;2023-11-21T19:22:52;13.33;;;7.17;;
26484;SDS011;18083;50.560;7.262;2023-11-21T19:25:21;9.27;;;6.07;;
26484;SDS011;18083;50.560;7.262;2023-11-21T19:27:49;14.47;;;8.83;;
26484;SDS011;18083;50.560;7.262;2023-11-21T19:30:17;14.00;;;6.63;;
26484;SDS011;18083;50.560;7.262;2023-11-21T19:32:45;26.10;;;13.50;;
26484;SDS011;18083;50.560;7.262;2023-11-21T19:35:12;18.03;;;9.30;;
26484;SDS011;18083;50.560;7.262;2023-11-21T19:37:40;15.27;;;8.93;;
26484;SDS011;18083;50.560;7.262;2023-11-21T19:40:07;20.10;;;10.27;;
26484;SDS011;18083;50.560;7.262;2023-11-21T19:42:35;9.03;;;6.10;;
26484;SDS011;18083;50.560;7.262;2023-11-21T19:45:03;8.83;;;5.37;;
26484;SDS011;18083;50.560;7.262;2023-11-21T19:47:30;8.20;;;5.20;;
26484;SDS011;18083;50.560;7.262;2023-11-21T19:49:59;7.10;;;4.80;;
26484;SDS011;18083;50.560;7.262;2023-11-21T19:52:26;6.70;;;5.03;;
26484;SDS011;18083;50.560;7.262;2023-11-21T19:54:55;7.07;;;4.57;;
26484;SDS011;18083;50.560;7.262;2023-11-21T19:57:22;6.90;;;5.10;;
26484;SDS011;18083;50.560;7.262;2023-11-21T19:59:50;7.27;;;4.67;;
26484;SDS011;18083;50.560;7.262;2023-11-21T20:02:17;7.40;;;4.90;;
26484;SDS011;18083;50.560;7.262;2023-11-21T20:04:44;5.93;;;4.67;;
26484;SDS011;18083;50.560;7.262;2023-11-21T20:07:13;4.77;;;3.80;;
26484;SDS011;18083;50.560;7.262;2023-11-21T20:09:41;12.27;;;6.30;;
26484;SDS011;18083;50.560;7.262;2023-11-21T20:12:08;16.47;;;9.53;;
26484;SDS011;18083;50.560;7.262;2023-11-21T20:14:36;18.13;;;10.30;;
26484;SDS011;18083;50.560;7.262;2023-11-21T20:17:03;11.93;;;6.93;;
26484;SDS011;18083;50.560;7.262;2023-11-21T20:19:31;6.07;;;4.57;;
26484;SDS011;18083;50.560;7.262;2023-11-21T20:21:58;7.13;;;3.97;;
26484;SDS011;18083;50.560;7.262;2023-11-21T20:24:25;5.07;;;3.47;;
26484;SDS011;18083;50.560;7.262;2023-11-21T20:26:59;5.67;;;4.67;;
26484;SDS011;18083;50.560;7.262;2023-11-21T20:29:23;5.67;;;4.03;;
26484;SDS011;18083;50.560;7.262;2023-11-21T20:31:50;4.37;;;3.73;;
26484;SDS011;18083;50.560;7.262;2023-11-21T20:34:17;4.33;;;3.93;;
26484;SDS011;18083;50.560;7.262;2023-11-21T20:36:46;7.67;;;4.10;;
26484;SDS011;18083;50.560;7.262;2023-11-21T20:39:15;5.73;;;4.50;;
26484;SDS011;18083;50.560;7.262;2023-11-21T20:41:42;5.50;;;3.63;;
26484;SDS011;18083;50.560;7.262;2023-11-21T20:44:10;4.93;;;3.93;;
26484;SDS011;18083;50.560;7.262;2023-11-21T20:46:40;9.00;;;5.20;;
26484;SDS011;18083;50.560;7.262;2023-11-21T20:49:15;9.73;;;6.57;;
26484;SDS011;18083;50.560;7.262;2023-11-21T20:51:42;10.00;;;4.97;;
26484;SDS011;18083;50.560;7.262;2023-11-21T20:54:11;8.60;;;5.27;;
26484;SDS011;18083;50.560;7.262;2023-11-21T20:56:39;7.67;;;4.70;;
26484;SDS011;18083;50.560;7.262;2023-11-21T20:59:07;4.47;;;3.73;;
26484;SDS011;18083;50.560;7.262;2023-11-21T21:01:35;6.80;;;4.43;;
26484;SDS011;18083;50.560;7.262;2023-11-21T21:04:02;4.27;;;3.40;;
26484;SDS011;18083;50.560;7.262;2023-11-21T21:06:30;4.73;;;2.97;;
26484;SDS011;18083;50.560;7.262;2023-11-21T21:08:57;5.27;;;3.60;;
26484;SDS011;18083;50.560;7.262;2023-11-21T21:11:25;4.43;;;3.20;;
26484;SDS011;18083;50.560;7.262;2023-11-21T21:13:53;4.60;;;2.83;;
26484;SDS011;18083;50.560;7.262;2023-11-21T21:16:20;3.00;;;2.27;;
26484;SDS011;18083;50.560;7.262;2023-11-21T21:18:54;4.73;;;3.00;;
26484;SDS011;18083;50.560;7.262;2023-11-21T21:21:22;3.00;;;2.37;;
26484;SDS011;18083;50.560;7.262;2023-11-21T21:23:50;5.53;;;3.50;;
26484;SDS011;18083;50.560;7.262;2023-11-21T21:26:17;4.30;;;3.77;;
26484;SDS011;18083;50.560;7.262;2023-11-21T21:28:48;3.50;;;3.10;;
26484;SDS011;18083;50.560;7.262;2023-11-21T21:31:15;4.33;;;3.30;;
26484;SDS011;18083;50.560;7.262;2023-11-21T21:33:43;4.50;;;3.50;;
26484;SDS011;18083;50.560;7.262;2023-11-21T21:36:10;4.13;;;3.57;;
26484;SDS011;18083;50.560;7.262;2023-11-21T21:38:38;5.73;;;3.77;;
26484;SDS011;18083;50.560;7.262;2023-11-21T21:41:08;6.33;;;3.97;;
26484;SDS011;18083;50.560;7.262;2023-11-21T21:43:39;4.87;;;3.27;;
26484;SDS011;18083;50.560;7.262;2023-11-21T21:46:07;7.77;;;4.60;;
26484;SDS011;18083;50.560;7.262;2023-11-21T21:48:35;5.43;;;3.83;;
26484;SDS011;18083;50.560;7.262;2023-11-21T21:51:03;7.93;;;4.37;;
26484;SDS011;18083;50.560;7.262;2023-11-21T21:53:30;6.20;;;4.63;;
26484;SDS011;18083;50.560;7.262;2023-11-21T21:55:57;6.07;;;4.27;;
26484;SDS011;18083;50.560;7.262;2023-11-21T21:58:25;8.50;;;4.90;;
26484;SDS011;18083;50.560;7.262;2023-11-21T22:00:52;6.53;;;4.27;;
26484;SDS011;18083;50.560;7.262;2023-11-21T22:03:20;6.70;;;4.40;;
26484;SDS011;18083;50.560;7.262;2023-11-21T22:05:48;6.53;;;3.90;;
26484;SDS011;18083;50.560;7.262;2023-11-21T22:08:15;5.67;;;4.10;;
26484;SDS011;18083;50.560;7.262;2023-11-21T22:10:43;5.97;;;3.90;;
26484;SDS011;18083;50.560;7.262;2023-11-21T22:13:11;7.10;;;3.87;;
26484;SDS011;18083;50.560;7.262;2023-11-21T22:15:38;6.00;;;4.70;;
26484;SDS011;18083;50.560;7.262;2023-11-21T22:18:07;5.97;;;4.67;;
26484;SDS011;18083;50.560;7.262;2023-11-21T22:20:35;7.30;;;4.27;;
26484;SDS011;18083;50.560;7.262;2023-11-21T22:23:02;4.63;;;3.77;;
26484;SDS011;18083;50.560;7.262;2023-11-21T22:25:30;4.60;;;3.97;;
26484;SDS011;18083;50.560;7.262;2023-11-21T22:27:58;6.03;;;4.90;;
26484;SDS011;18083;50.560;7.262;2023-11-21T22:30:26;5.70;;;4.03;;
26484;SDS011;18083;50.560;7.262;2023-11-21T22:32:54;4.73;;;3.87;;
26484;SDS011;18083;50.560;7.262;2023-11-21T22:35:28;5.27;;;4.07;;
26484;SDS011;18083;50.560;7.262;2023-11-21T22:37:56;6.37;;;4.30;;
26484;SDS011;18083;50.560;7.262;2023-11-21T22:40:23;4.80;;;3.67;;
26484;SDS011;18083;50.560;7.262;2023-11-21T22:42:51;4.97;;;4.10;;
26484;SDS011;18083;50.560;7.262;2023-11-21T22:45:18;4.37;;;3.90;;
26484;SDS011;18083;50.560;7.262;2023-11-21T22:47:47;5.70;;;3.93;;
26484;SDS011;18083;50.560;7.262;2023-11-21T22:50:14;4.67;;;3.97;;
26484;SDS011;18083;50.560;7.262;2023-11-21T22:52:41;5.30;;;4.70;;
26484;SDS011;18083;50.560;7.262;2023-11-21T22:55:09;5.73;;;3.83;;
26484;SDS011;18083;50.560;7.262;2023-11-21T22:57:37;5.77;;;4.43;;
26484;SDS011;18083;50.560;7.262;2023-11-21T23:00:04;7.50;;;5.17;;
26484;SDS011;18083;50.560;7.262;2023-11-21T23:02:33;8.60;;;6.17;;
26484;SDS011;18083;50.560;7.262;2023-11-21T23:05:01;8.37;;;5.23;;